Time;durP1;ratioP1;P1;durP2;ratioP2;P2;SDS_P1;SDS_P2;PMS_P1;PMS_P2;Temp;Humidity;BMP_temperature;BMP_pressure;BME280_temperature;BME280_humidity;BME280_pressure;Samples;Min_cycle;Max_cycle;Signal;HPM_P1;HPM_P2
2022/06/02 00:01:18;;;;;;;1.15;0.80;;;;;;;18.99;63.85;99582.03;5033149;28;20061;-74
2022/06/02 00:03:59;;;;;;;0.60;0.60;;;;;;;19.02;63.72;99586.25;5033132;28;20140;-71
2022/06/02 00:06:54;;;;;;;0.50;0.50;;;;;;;18.97;63.92;99583.00;5033105;28;20041;-73
2022/06/02 00:09:46;;;;;;;1.23;1.13;;;;;;;18.97;63.97;99588.16;5036836;28;20053;-73
2022/06/02 00:12:41;;;;;;;1.00;0.90;;;;;;;18.91;64.11;99588.41;5037332;28;20072;-72
2022/06/02 00:15:26;;;;;;;0.65;0.65;;;;;;;18.84;64.34;99581.72;5037020;28;20042;-72
2022/06/02 00:18:04;;;;;;;2.05;1.20;;;;;;;18.79;64.67;99591.41;5036901;28;20080;-73
2022/06/02 00:20:44;;;;;;;1.02;0.93;;;;;;;18.82;64.69;99596.47;5037160;28;20081;-73
2022/06/02 00:23:46;;;;;;;0.60;0.60;;;;;;;18.88;64.87;99604.03;5037126;28;20049;-71
2022/06/02 00:26:39;;;;;;;0.70;0.70;;;;;;;18.88;64.94;99596.25;4976062;28;20055;-71
2022/06/02 00:29:33;;;;;;;0.70;0.70;;;;;;;18.91;65.03;99593.56;4976125;28;20047;-73
2022/06/02 00:32:09;;;;;;;0.68;0.68;;;;;;;18.87;65.18;99600.59;4959819;28;20047;-71
2022/06/02 00:34:44;;;;;;;1.95;0.93;;;;;;;18.80;65.30;99604.28;4975863;28;20149;-71
2022/06/02 00:37:22;;;;;;;0.85;0.70;;;;;;;18.72;65.54;99601.97;4975780;28;20134;-71
2022/06/02 00:39:52;;;;;;;1.13;1.02;;;;;;;18.82;65.67;99620.59;4975651;28;20093;-74
2022/06/02 00:42:40;;;;;;;0.50;0.50;;;;;;;18.81;65.70;99623.25;4962786;28;20110;-74
2022/06/02 00:45:13;;;;;;;2.13;0.73;;;;;;;18.82;65.79;99614.56;5006484;28;20492;-73
2022/06/02 00:48:00;;;;;;;1.23;1.02;;;;;;;18.76;65.85;99601.88;5016856;28;20480;-73
2022/06/02 00:50:58;;;;;;;1.58;1.45;;;;;;;18.68;65.99;99602.97;5016559;28;20049;-71
2022/06/02 00:53:40;;;;;;;1.10;1.02;;;;;;;18.68;66.22;99602.97;5011774;28;20132;-72
2022/06/02 00:59:23;;;;;;;0.80;0.80;;;;;;;18.66;66.28;99604.78;5015476;28;20062;-73
2022/06/02 01:01:53;;;;;;;0.70;0.70;;;;;;;18.64;66.70;99601.38;5016422;28;20483;-71
2022/06/02 01:04:25;;;;;;;0.60;0.60;;;;;;;18.71;66.31;99613.19;5016242;28;20097;-73
2022/06/02 01:07:11;;;;;;;0.60;0.60;;;;;;;18.74;66.21;99628.59;5016454;28;20088;-71
2022/06/02 01:10:03;;;;;;;0.80;0.80;;;;;;;18.61;66.10;99616.16;5016218;28;20057;-72
2022/06/02 01:13:01;;;;;;;0.60;0.60;;;;;;;18.55;65.76;99622.38;5016463;28;20045;-74
2022/06/02 01:15:46;;;;;;;0.70;0.70;;;;;;;18.49;65.58;99622.59;4985132;28;20500;-73
2022/06/02 01:18:28;;;;;;;0.50;0.50;;;;;;;18.53;65.50;99621.59;5016028;28;20041;-71
2022/06/02 01:21:24;;;;;;;0.68;0.68;;;;;;;18.59;65.19;99623.13;5015998;28;20096;-71
2022/06/02 01:24:14;;;;;;;0.43;0.43;;;;;;;18.61;64.80;99626.50;5015898;28;20057;-73
2022/06/02 01:27:03;;;;;;;0.80;0.80;;;;;;;18.61;64.55;99632.53;5014696;28;20061;-73
2022/06/02 01:29:55;;;;;;;0.77;0.73;;;;;;;18.55;64.42;99632.72;5016181;28;20096;-71
2022/06/02 01:32:32;;;;;;;0.95;0.80;;;;;;;18.56;64.74;99629.25;5016100;28;20116;-71
2022/06/02 01:35:10;;;;;;;0.40;0.40;;;;;;;18.57;65.10;99633.50;5015832;28;20076;-73
2022/06/02 01:38:02;;;;;;;0.57;0.57;;;;;;;18.50;65.55;99626.84;5015951;28;20392;-73
2022/06/02 01:40:49;;;;;;;0.47;0.47;;;;;;;18.56;65.82;99634.44;5015658;28;20133;-74
2022/06/02 01:43:23;;;;;;;0.60;0.60;;;;;;;18.50;65.73;99626.84;5015598;28;20053;-71
2022/06/02 01:46:18;;;;;;;0.50;0.50;;;;;;;18.46;66.06;99627.88;5015472;28;20072;-73
2022/06/02 01:49:12;;;;;;;0.52;0.52;;;;;;;18.43;66.25;99632.25;5015499;28;20092;-71
2022/06/02 01:51:55;;;;;;;0.70;0.70;;;;;;;18.42;66.22;99644.34;5015431;28;20045;-71
2022/06/02 01:54:37;;;;;;;1.80;0.80;;;;;;;18.45;66.28;99648.56;5015653;28;20046;-71
2022/06/02 01:57:29;;;;;;;0.50;0.50;;;;;;;18.38;66.39;99642.75;5015332;28;20046;-71
2022/06/02 02:00:08;;;;;;;0.50;0.50;;;;;;;18.35;66.30;99642.88;5009164;28;20054;-71
2022/06/02 02:03:02;;;;;;;0.55;0.55;;;;;;;18.18;66.40;99632.22;5015226;28;20100;-73
2022/06/02 02:06:07;;;;;;;0.55;0.55;;;;;;;18.05;66.62;99642.09;5015396;28;20046;-71
2022/06/02 02:08:59;;;;;;;0.50;0.50;;;;;;;18.03;67.40;99643.03;5015408;28;20472;-71
2022/06/02 02:11:48;;;;;;;0.65;0.60;;;;;;;18.02;67.85;99641.34;5015031;28;20050;-71
2022/06/02 02:14:39;;;;;;;0.50;0.50;;;;;;;17.94;68.68;99649.34;5015037;28;20081;-71
2022/06/02 02:17:48;;;;;;;0.60;0.60;;;;;;;17.91;69.44;99648.59;5015246;28;20053;-71
2022/06/02 02:20:26;;;;;;;0.50;0.50;;;;;;;17.83;69.85;99640.22;5014957;28;20038;-71
2022/06/02 02:23:04;;;;;;;0.60;0.60;;;;;;;17.71;70.39;99635.44;5014856;28;20518;-71
2022/06/02 02:25:45;;;;;;;0.60;0.60;;;;;;;17.65;71.07;99646.81;5015028;28;20652;-71
2022/06/02 02:28:26;;;;;;;0.65;0.65;;;;;;;17.59;71.40;99646.16;4998098;28;20481;-71
2022/06/02 02:31:13;;;;;;;1.17;1.08;;;;;;;17.55;71.61;99657.44;5014252;28;20081;-71
2022/06/02 02:33:54;;;;;;;0.82;0.82;;;;;;;17.59;71.77;99651.31;5015280;28;20043;-71
2022/06/02 02:36:32;;;;;;;1.02;0.95;;;;;;;17.53;72.02;99661.81;5014588;28;20105;-71
2022/06/02 02:39:18;;;;;;;0.50;0.50;;;;;;;17.46;72.55;99645.63;5014537;28;20057;-71
2022/06/02 02:42:05;;;;;;;0.50;0.50;;;;;;;17.51;72.75;99655.81;5022125;28;20081;-71
2022/06/02 02:44:59;;;;;;;0.50;0.50;;;;;;;17.50;72.90;99656.69;5034216;28;20048;-71
2022/06/02 02:47:46;;;;;;;0.63;0.63;;;;;;;17.46;73.19;99652.53;5032342;28;20046;-71
2022/06/02 02:50:36;;;;;;;0.73;0.63;;;;;;;17.46;73.14;99655.09;5026557;28;20111;-71
2022/06/02 02:53:12;;;;;;;0.82;0.73;;;;;;;17.47;73.29;99656.81;5034060;28;20050;-71
2022/06/02 02:55:48;;;;;;;0.60;0.60;;;;;;;17.37;73.20;99657.03;5034313;28;20503;-71
2022/06/02 02:58:24;;;;;;;0.88;0.70;;;;;;;17.36;73.36;99660.53;5016378;28;20045;-74
2022/06/02 03:01:01;;;;;;;0.60;0.60;;;;;;;17.43;73.51;99656.88;5033924;28;20491;-74
2022/06/02 03:03:36;;;;;;;0.95;0.95;;;;;;;17.46;73.32;99660.25;5033958;28;20108;-71
2022/06/02 03:06:23;;;;;;;0.50;0.50;;;;;;;17.44;73.25;99645.66;5033805;28;20124;-71
2022/06/02 03:09:05;;;;;;;0.70;0.70;;;;;;;17.42;73.23;99655.19;5033758;28;20046;-71
2022/06/02 03:12:03;;;;;;;0.70;0.70;;;;;;;17.40;73.21;99650.94;5034060;28;20049;-72
2022/06/02 03:14:55;;;;;;;0.60;0.60;;;;;;;17.28;73.10;99647.00;5034059;28;20053;-72
2022/06/02 03:17:31;;;;;;;1.13;1.00;;;;;;;17.24;73.19;99655.72;5015652;28;20491;-71
2022/06/02 03:20:19;;;;;;;0.47;0.47;;;;;;;17.20;73.53;99654.09;5033731;28;20046;-72
2022/06/02 03:23:06;;;;;;;0.77;0.73;;;;;;;17.26;73.45;99661.66;5033944;28;20047;-71
2022/06/02 03:25:42;;;;;;;0.50;0.50;;;;;;;17.25;73.26;99667.72;5033663;28;20463;-71
2022/06/02 03:28:34;;;;;;;1.42;1.05;;;;;;;17.31;73.31;99667.56;5033401;28;20133;-72
2022/06/02 03:31:15;;;;;;;0.73;0.73;;;;;;;17.34;73.15;99672.63;5033469;28;20068;-72
2022/06/02 03:34:17;;;;;;;0.85;0.85;;;;;;;17.21;73.06;99662.69;5033490;28;20041;-72
2022/06/02 03:37:14;;;;;;;0.55;0.55;;;;;;;17.26;72.95;99668.56;5033481;28;20135;-72
2022/06/02 03:39:55;;;;;;;1.00;0.98;;;;;;;17.30;73.28;99671.00;5033452;28;20057;-72
2022/06/02 03:42:35;;;;;;;0.57;0.52;;;;;;;17.30;73.19;99676.16;5033356;28;20061;-72
2022/06/02 03:45:26;;;;;;;2.05;0.90;;;;;;;17.34;73.21;99672.63;5037495;28;20076;-72
2022/06/02 03:48:18;;;;;;;0.70;0.70;;;;;;;17.37;72.81;99669.94;5037554;28;20040;-72
2022/06/02 03:51:08;;;;;;;0.60;0.60;;;;;;;17.35;72.85;99668.28;5037489;28;20491;-71
2022/06/02 03:57:07;;;;;;;0.40;0.40;;;;;;;17.31;72.54;99667.56;5018627;28;20192;-72
2022/06/02 04:00:25;;;;;;;0.82;0.82;;;;;;;17.33;72.62;99676.09;5037222;28;20399;-71
2022/06/02 04:03:07;;;;;;;0.40;0.40;;;;;;;17.32;72.76;99676.97;5032885;28;20056;-71
2022/06/02 04:05:59;;;;;;;0.77;0.60;;;;;;;17.36;72.44;99676.00;5037155;28;20100;-71
2022/06/02 04:08:56;;;;;;;0.50;0.50;;;;;;;17.32;72.60;99653.75;5036953;28;20046;-71
2022/06/02 04:14:24;;;;;;;1.08;0.98;;;;;;;17.48;72.67;99648.16;5036997;28;20049;-72
2022/06/02 04:17:01;;;;;;;0.80;0.80;;;;;;;17.42;72.44;99655.19;5037314;28;20045;-71
2022/06/02 04:22:59;;;;;;;0.88;0.85;;;;;;;17.52;72.90;99665.25;5037197;28;20041;-71
2022/06/02 04:25:40;;;;;;;2.10;1.73;;;;;;;17.58;72.68;99660.78;5036818;28;20053;-71
2022/06/02 04:28:19;;;;;;;0.57;0.57;;;;;;;17.54;72.59;99659.16;5036996;28;20453;-73
2022/06/02 04:31:01;;;;;;;0.95;0.93;;;;;;;17.43;72.80;99664.63;5036635;28;20104;-72
2022/06/02 04:33:40;;;;;;;0.60;0.60;;;;;;;17.34;72.87;99664.03;5036975;28;20045;-73
2022/06/02 04:36:18;;;;;;;0.47;0.47;;;;;;;17.36;73.16;99665.69;5036679;28;20140;-74
2022/06/02 04:39:03;;;;;;;0.60;0.60;;;;;;;17.34;73.11;99664.91;5036928;28;20042;-75
2022/06/02 04:41:42;;;;;;;2.30;1.48;;;;;;;17.39;73.31;99664.75;5036463;28;20552;-75
2022/06/02 04:44:23;;;;;;;0.70;0.70;;;;;;;17.51;73.42;99679.03;5036489;28;20064;-73
2022/06/02 04:47:06;;;;;;;0.70;0.70;;;;;;;17.53;73.33;99672.13;5036437;28;20049;-71
2022/06/02 04:49:41;;;;;;;2.10;1.05;;;;;;;17.59;73.27;99674.53;5036331;28;20045;-71
2022/06/02 04:52:22;;;;;;;1.30;0.93;;;;;;;17.68;73.42;99679.44;5036365;28;20083;-75
2022/06/02 04:55:01;;;;;;;0.88;0.88;;;;;;;17.64;73.29;99685.56;5035817;28;20112;-75
2022/06/02 04:57:38;;;;;;;0.88;0.75;;;;;;;17.74;73.64;99690.41;5036590;28;20128;-75
2022/06/02 05:00:22;;;;;;;0.80;0.80;;;;;;;17.77;73.58;99694.66;5036120;28;20042;-75
2022/06/02 05:03:05;;;;;;;1.42;1.00;;;;;;;17.82;73.69;99692.78;5018516;28;20049;-72
2022/06/02 05:05:58;;;;;;;0.70;0.70;;;;;;;17.83;73.48;99697.03;5036086;28;20133;-71
2022/06/02 05:09:01;;;;;;;1.33;1.23;;;;;;;17.85;73.17;99695.28;5036068;28;20499;-71
2022/06/02 05:11:41;;;;;;;0.80;0.80;;;;;;;17.89;73.14;99704.59;5036258;28;20048;-72
2022/06/02 05:14:33;;;;;;;1.20;1.10;;;;;;;17.95;72.96;99696.66;5036231;28;20045;-71
2022/06/02 05:17:26;;;;;;;1.27;0.95;;;;;;;18.01;72.77;99694.75;5036144;28;20407;-71
2022/06/02 05:20:26;;;;;;;0.77;0.70;;;;;;;17.99;72.69;99690.53;5036125;28;20450;-72
2022/06/02 05:23:26;;;;;;;0.80;0.80;;;;;;;18.03;72.88;99695.56;5036015;28;20128;-71
2022/06/02 05:26:14;;;;;;;1.38;1.05;;;;;;;18.14;72.54;99707.31;5035566;28;20080;-71
2022/06/02 05:29:06;;;;;;;0.75;0.75;;;;;;;18.24;72.37;99706.94;5035620;28;20049;-71
2022/06/02 05:31:55;;;;;;;0.85;0.85;;;;;;;18.34;72.00;99704.91;5035814;28;20491;-72
2022/06/02 05:34:57;;;;;;;1.05;0.95;;;;;;;18.46;71.62;99714.91;5033371;28;20511;-71
2022/06/02 05:37:41;;;;;;;0.68;0.68;;;;;;;18.40;71.08;99700.41;5004923;28;20052;-73
2022/06/02 05:40:19;;;;;;;0.73;0.73;;;;;;;18.48;70.76;99713.97;5018007;28;20396;-71
2022/06/02 05:43:19;;;;;;;0.82;0.77;;;;;;;18.52;70.40;99723.28;5035149;28;20076;-75
2022/06/02 05:46:06;;;;;;;1.25;0.85;;;;;;;18.68;70.33;99732.25;5034039;28;20083;-75
2022/06/02 05:48:59;;;;;;;0.60;0.60;;;;;;;18.79;69.93;99726.72;5035792;28;20037;-75
2022/06/02 05:51:36;;;;;;;0.63;0.63;;;;;;;18.60;69.65;99677.38;4998578;28;20046;-75
2022/06/02 05:54:18;;;;;;;0.75;0.70;;;;;;;18.99;69.21;99736.41;5017811;28;20037;-76
2022/06/02 05:57:00;;;;;;;0.73;0.70;;;;;;;18.97;68.78;99738.19;5035139;28;20077;-74
2022/06/02 05:59:52;;;;;;;0.70;0.68;;;;;;;19.09;68.25;99742.97;5035612;28;20046;-75
2022/06/02 06:02:53;;;;;;;1.02;0.93;;;;;;;19.28;68.31;99746.59;5035289;28;20107;-73
2022/06/02 06:05:29;;;;;;;0.70;0.60;;;;;;;19.37;67.46;99751.47;5034041;28;20049;-71
2022/06/02 06:08:17;;;;;;;0.75;0.73;;;;;;;19.43;66.69;99758.19;5001192;28;20435;-71
2022/06/02 06:10:55;;;;;;;0.70;0.70;;;;;;;19.51;66.31;99759.59;5034760;28;20041;-71
2022/06/02 06:13:56;;;;;;;0.60;0.60;;;;;;;19.73;66.07;99757.94;5034750;28;20060;-71
2022/06/02 06:16:32;;;;;;;0.63;0.63;;;;;;;19.80;65.95;99761.97;5034667;28;20054;-71
2022/06/02 06:19:26;;;;;;;0.60;0.60;;;;;;;19.83;65.24;99764.47;5034896;28;20045;-71
2022/06/02 06:22:19;;;;;;;0.75;0.73;;;;;;;19.83;64.76;99763.63;4973988;28;20051;-74
2022/06/02 06:25:19;;;;;;;0.80;0.73;;;;;;;19.75;64.22;99753.53;4973810;28;20047;-75
2022/06/02 06:28:04;;;;;;;0.63;0.63;;;;;;;19.57;64.28;99755.94;4973585;28;20098;-75
2022/06/02 06:31:01;;;;;;;0.68;0.68;;;;;;;19.63;64.48;99751.38;4973579;28;20497;-72
2022/06/02 06:33:51;;;;;;;0.70;0.70;;;;;;;19.80;64.32;99745.59;4973900;28;20055;-72
2022/06/02 06:36:38;;;;;;;0.50;0.50;;;;;;;19.80;63.86;99723.13;4973627;28;20054;-71
2022/06/02 06:39:25;;;;;;;0.70;0.70;;;;;;;20.07;63.47;99747.16;4973561;28;20516;-73
2022/06/02 06:42:29;;;;;;;0.60;0.60;;;;;;;20.28;63.15;99735.13;4973544;28;20069;-74
2022/06/02 06:45:04;;;;;;;0.82;0.80;;;;;;;20.49;62.72;99735.13;4972055;28;20062;-74
2022/06/02 06:47:39;;;;;;;0.52;0.52;;;;;;;20.67;61.88;99738.72;4973486;28;20133;-71
2022/06/02 06:50:15;;;;;;;1.58;0.70;;;;;;;20.49;61.66;99677.25;4973197;28;20493;-71
2022/06/02 06:53:10;;;;;;;0.60;0.60;;;;;;;21.02;60.67;99740.69;4983675;28;20546;-71
2022/06/02 06:55:52;;;;;;;0.80;0.80;;;;;;;21.13;60.28;99753.28;5038614;28;20041;-73
2022/06/02 06:58:37;;;;;;;0.50;0.50;;;;;;;21.10;59.98;99748.19;5054415;28;20044;-71
2022/06/02 07:01:24;;;;;;;0.60;0.60;;;;;;;21.09;59.66;99721.38;5054106;28;20402;-72
2022/06/02 07:04:04;;;;;;;0.75;0.75;;;;;;;21.38;59.40;99753.06;5054108;28;20048;-72
2022/06/02 07:07:06;;;;;;;0.73;0.70;;;;;;;21.60;59.02;99754.63;5053822;28;20561;-71
2022/06/02 07:09:45;;;;;;;0.50;0.50;;;;;;;21.73;58.60;99757.53;5005334;28;20410;-72
2022/06/02 07:15:05;;;;;;;2.53;0.90;;;;;;;21.95;57.96;99751.31;5027090;28;20107;-72
2022/06/02 07:17:42;;;;;;;1.50;1.40;;;;;;;22.06;57.53;99745.63;5031467;28;20052;-72
2022/06/02 07:20:38;;;;;;;0.55;0.55;;;;;;;21.70;56.94;99692.72;5031988;28;20091;-71
2022/06/02 07:23:13;;;;;;;0.88;0.88;;;;;;;22.01;55.80;99755.41;5031676;28;20041;-75
2022/06/02 07:25:51;;;;;;;1.25;1.15;;;;;;;21.91;56.11;99748.94;5023254;28;20129;-72
2022/06/02 07:28:30;;;;;;;0.52;0.52;;;;;;;22.02;56.49;99751.91;5042655;28;20069;-71
2022/06/02 07:31:15;;;;;;;0.65;0.65;;;;;;;22.22;56.59;99756.19;5053283;28;20053;-72
2022/06/02 07:33:53;;;;;;;0.45;0.45;;;;;;;22.47;55.67;99754.94;5053401;28;20495;-74
2022/06/02 07:36:52;;;;;;;1.33;1.20;;;;;;;22.37;54.40;99758.03;5053300;28;20072;-72
2022/06/02 07:39:37;;;;;;;;;;;;;;;22.37;54.64;99764.09;5047863;28;20131;-73
2022/06/02 07:42:39;;;;;;;0.65;0.65;;;;;;;22.32;54.59;99768.66;5053111;28;20370;-72
2022/06/02 07:45:30;;;;;;;1.17;0.85;;;;;;;22.26;54.99;99750.75;5028461;28;20044;-73
2022/06/02 07:48:23;;;;;;;0.65;0.65;;;;;;;22.36;54.30;99778.00;5041168;28;20037;-73
2022/06/02 07:51:04;;;;;;;0.60;0.60;;;;;;;22.24;54.24;99789.00;5041938;28;20100;-71
2022/06/02 07:53:44;;;;;;;0.70;0.70;;;;;;;22.25;54.68;99784.63;5048161;28;20487;-73
2022/06/02 07:56:23;;;;;;;0.50;0.50;;;;;;;22.31;55.05;99780.00;5053451;28;20052;-73
2022/06/02 07:59:01;;;;;;;0.80;0.80;;;;;;;22.61;54.82;99777.72;5039957;28;20045;-75
2022/06/02 08:01:58;;;;;;;1.00;0.90;;;;;;;22.96;54.30;99783.81;5051581;28;20051;-75
2022/06/02 08:04:49;;;;;;;0.50;0.50;;;;;;;23.13;53.42;99786.41;5053446;28;20048;-75
2022/06/02 08:07:26;;;;;;;1.17;0.80;;;;;;;23.33;53.13;99783.63;5046301;28;20083;-74
2022/06/02 08:10:17;;;;;;;1.10;1.00;;;;;;;23.32;53.27;99790.59;5046359;28;20132;-71
2022/06/02 08:12:57;;;;;;;0.60;0.60;;;;;;;23.37;53.50;99798.19;5050095;28;20053;-71
2022/06/02 08:15:47;;;;;;;0.55;0.52;;;;;;;23.60;53.57;99797.88;5035355;28;20053;-74
2022/06/02 08:18:38;;;;;;;0.60;0.60;;;;;;;23.29;52.88;99800.34;5052945;28;20170;-74
2022/06/02 08:21:17;;;;;;;0.50;0.50;;;;;;;23.26;53.56;99797.88;5051002;28;20052;-73
2022/06/02 08:24:12;;;;;;;0.60;0.60;;;;;;;23.50;54.24;99801.88;5053191;28;20482;-74
2022/06/02 08:26:52;;;;;;;0.73;0.73;;;;;;;23.59;54.20;99804.00;5050774;28;20474;-73
2022/06/02 08:29:35;;;;;;;0.85;0.70;;;;;;;23.63;54.49;99802.94;5054561;28;20075;-74
2022/06/02 08:32:24;;;;;;;0.50;0.50;;;;;;;23.56;54.02;99798.97;5056655;28;20049;-74
2022/06/02 08:35:04;;;;;;;0.60;0.60;;;;;;;23.58;53.69;99801.50;5039081;28;20506;-74
2022/06/02 08:37:47;;;;;;;0.68;0.52;;;;;;;23.77;54.29;99805.66;5056819;28;20087;-73
2022/06/02 08:40:59;;;;;;;0.60;0.60;;;;;;;23.99;53.36;99795.75;5056793;28;20118;-74
2022/06/02 08:44:01;;;;;;;0.40;0.40;;;;;;;24.22;52.00;99796.31;5036439;28;20278;-74
2022/06/02 08:46:58;;;;;;;1.00;0.80;;;;;;;24.64;52.22;99804.41;4993298;28;20144;-74
2022/06/02 08:49:47;;;;;;;0.70;0.70;;;;;;;24.86;50.87;99804.88;5018057;28;20068;-75
2022/06/02 08:52:49;;;;;;;0.77;0.77;;;;;;;25.12;50.65;99796.38;5036300;28;20100;-74
2022/06/02 08:55:46;;;;;;;0.60;0.60;;;;;;;25.48;51.43;99808.25;5036269;28;20050;-73
2022/06/02 08:58:48;;;;;;;0.82;0.73;;;;;;;25.64;49.65;99793.31;5036132;28;20129;-72
2022/06/02 09:01:35;;;;;;;0.55;0.55;;;;;;;25.69;48.04;99806.97;5036097;28;20045;-73
2022/06/02 09:04:37;;;;;;;0.77;0.70;;;;;;;25.36;48.19;99799.34;5036072;28;20160;-72
2022/06/02 09:07:28;;;;;;;0.50;0.50;;;;;;;25.52;48.94;99804.50;5034320;28;20045;-70
2022/06/02 09:10:34;;;;;;;0.50;0.50;;;;;;;25.83;50.17;99809.56;5029922;28;20049;-73
2022/06/02 09:13:32;;;;;;;0.50;0.50;;;;;;;25.73;49.54;99813.69;5036867;28;20057;-74
2022/06/02 09:16:20;;;;;;;0.53;0.50;;;;;;;25.53;48.65;99811.44;5034139;28;20046;-72
2022/06/02 09:19:06;;;;;;;0.40;0.40;;;;;;;25.47;48.53;99819.63;5032865;28;20057;-75
2022/06/02 09:22:12;;;;;;;0.60;0.60;;;;;;;25.63;48.53;99817.78;5035751;28;20045;-75
2022/06/02 09:24:50;;;;;;;0.50;0.50;;;;;;;25.68;48.32;99815.72;5016536;28;20049;-74
2022/06/02 09:27:48;;;;;;;0.60;0.60;;;;;;;25.35;48.65;99817.72;5035386;28;20050;-74
2022/06/02 09:30:38;;;;;;;0.60;0.60;;;;;;;25.08;49.31;99822.78;5035559;28;20076;-74
2022/06/02 09:33:37;;;;;;;0.57;0.57;;;;;;;24.74;49.43;99810.75;5035906;28;20050;-73
2022/06/02 09:36:30;;;;;;;0.50;0.50;;;;;;;24.78;50.08;99806.25;5007580;28;20139;-74
2022/06/02 09:39:18;;;;;;;0.60;0.60;;;;;;;25.20;51.15;99814.22;5025872;28;20104;-72
2022/06/02 09:42:03;;;;;;;0.80;0.80;;;;;;;25.57;50.90;99812.94;5041840;28;20135;-71
2022/06/02 09:44:44;;;;;;;0.70;0.70;;;;;;;25.78;48.82;99812.47;5047612;28;20041;-71
2022/06/02 09:47:41;;;;;;;0.47;0.47;;;;;;;25.89;47.97;99814.44;5055332;28;20084;-74
2022/06/02 09:50:40;;;;;;;0.85;0.65;;;;;;;26.15;47.43;99805.00;5049350;28;20487;-73
2022/06/02 09:53:39;;;;;;;0.50;0.50;;;;;;;26.21;45.96;99808.06;5055320;28;20040;-71
2022/06/02 09:56:26;;;;;;;0.82;0.82;;;;;;;26.17;45.55;99806.59;5053145;28;20041;-75
2022/06/02 09:59:11;;;;;;;0.40;0.40;;;;;;;26.10;44.93;99807.03;5045603;28;20043;-75
2022/06/02 10:01:56;;;;;;;0.50;0.50;;;;;;;25.91;45.21;99812.56;5048872;28;20049;-74
2022/06/02 10:05:00;;;;;;;0.50;0.50;;;;;;;25.82;45.46;99806.13;5050560;28;20127;-73
2022/06/02 10:07:58;;;;;;;0.60;0.60;;;;;;;25.80;46.38;99815.84;5054785;28;20064;-72
2022/06/02 10:10:43;;;;;;;0.60;0.60;;;;;;;25.67;47.26;99803.59;5033011;28;20520;-72
2022/06/02 10:13:28;;;;;;;0.50;0.50;;;;;;;25.63;47.45;99812.53;5051386;28;20045;-72
2022/06/02 10:16:21;;;;;;;0.60;0.60;;;;;;;25.39;47.57;99808.78;5054555;28;20045;-74
2022/06/02 10:19:11;;;;;;;0.40;0.40;;;;;;;25.34;47.83;99818.66;5054941;28;20041;-74
2022/06/02 10:21:55;;;;;;;0.70;0.70;;;;;;;25.34;47.28;99816.03;5054624;28;20498;-72
2022/06/02 10:24:58;;;;;;;0.70;0.70;;;;;;;25.41;47.41;99818.19;5054547;28;20049;-75
2022/06/02 10:28:05;;;;;;;0.77;0.60;;;;;;;25.69;48.37;99823.50;5054755;28;20106;-72
2022/06/02 10:31:04;;;;;;;0.70;0.70;;;;;;;25.70;48.21;99819.94;5054395;28;20079;-74
2022/06/02 10:34:03;;;;;;;0.50;0.50;;;;;;;25.56;47.33;99816.47;5054336;28;20132;-73
2022/06/02 10:37:00;;;;;;;0.43;0.43;;;;;;;25.34;47.31;99816.84;5054245;28;20041;-72
2022/06/02 10:39:44;;;;;;;0.47;0.47;;;;;;;25.05;47.27;99805.50;5054285;28;20052;-72
2022/06/02 10:42:35;;;;;;;0.90;0.90;;;;;;;25.05;47.82;99817.75;5053992;28;20064;-71
2022/06/02 10:45:20;;;;;;;0.50;0.50;;;;;;;25.01;48.15;99809.22;5054106;28;20045;-72
2022/06/02 10:48:19;;;;;;;0.60;0.60;;;;;;;25.05;47.75;99815.94;5053055;28;20136;-72
2022/06/02 10:51:18;;;;;;;1.15;1.00;;;;;;;24.96;47.31;99813.88;5021667;28;20136;-73
2022/06/02 10:54:12;;;;;;;0.73;0.73;;;;;;;25.09;47.58;99827.94;5044529;28;20080;-74
2022/06/02 10:57:00;;;;;;;4.88;1.52;;;;;;;25.37;47.14;99821.06;5054014;28;20048;-75
2022/06/02 10:59:54;;;;;;;0.40;0.40;;;;;;;25.57;45.92;99823.38;5054144;28;20053;-73
2022/06/02 11:02:54;;;;;;;0.60;0.60;;;;;;;25.90;45.28;99827.41;5053819;28;20471;-74
2022/06/02 11:05:45;;;;;;;0.40;0.40;;;;;;;26.29;45.29;99818.91;5054194;28;20100;-74
2022/06/02 11:09:04;;;;;;;0.60;0.60;;;;;;;26.61;44.44;99807.22;5053754;28;20045;-73
2022/06/02 11:11:55;;;;;;;0.60;0.60;;;;;;;27.04;44.75;99812.31;5053583;28;20044;-74
2022/06/02 11:14:50;;;;;;;0.75;0.75;;;;;;;27.18;44.23;99809.63;5053975;28;20103;-73
2022/06/02 11:17:40;;;;;;;0.63;0.63;;;;;;;27.12;42.30;99808.25;5053891;28;20479;-73
2022/06/02 11:20:30;;;;;;;0.70;0.70;;;;;;;26.99;40.74;99809.16;5053530;28;20070;-74
2022/06/02 11:23:29;;;;;;;0.77;0.77;;;;;;;26.85;40.71;99796.13;5046249;28;20041;-74
2022/06/02 11:26:26;;;;;;;0.50;0.50;;;;;;;26.82;40.33;99812.03;5049647;28;20499;-75
2022/06/02 11:29:23;;;;;;;0.70;0.70;;;;;;;26.80;39.51;99808.69;5047223;28;20073;-74
2022/06/02 11:32:14;;;;;;;0.50;0.50;;;;;;;27.09;40.04;99813.69;5039738;28;20056;-74
2022/06/02 11:35:05;;;;;;;0.70;0.60;;;;;;;27.13;40.24;99806.47;5033203;28;20064;-73
2022/06/02 11:37:58;;;;;;;0.60;0.60;;;;;;;27.28;39.86;99806.25;5033452;28;20510;-73
2022/06/02 11:41:01;;;;;;;0.50;0.50;;;;;;;27.22;39.69;99801.44;5033436;28;20052;-71
2022/06/02 11:43:48;;;;;;;0.50;0.50;;;;;;;26.82;40.51;99801.56;5033718;28;20132;-73
2022/06/02 11:46:46;;;;;;;0.45;0.45;;;;;;;26.75;41.09;99803.75;5033340;28;20107;-74
2022/06/02 11:49:35;;;;;;;0.50;0.50;;;;;;;26.80;41.08;99813.94;5033668;28;20103;-73
2022/06/02 11:52:34;;;;;;;1.05;0.95;;;;;;;26.93;40.19;99817.41;5033556;28;20430;-74
2022/06/02 11:55:22;;;;;;;0.80;0.80;;;;;;;26.97;40.12;99801.38;5033574;28;20129;-74
2022/06/02 11:58:07;;;;;;;0.50;0.50;;;;;;;27.07;39.25;99812.09;5035278;28;20445;-72
2022/06/02 12:01:10;;;;;;;0.90;0.70;;;;;;;27.01;39.74;99812.53;5051785;28;20068;-74
2022/06/02 12:04:03;;;;;;;2.55;1.15;;;;;;;27.17;40.06;99807.94;5046505;28;20505;-74
2022/06/02 12:06:54;;;;;;;0.70;0.70;;;;;;;27.47;40.60;99816.41;5041722;28;20025;-74
2022/06/02 12:09:46;;;;;;;0.60;0.60;;;;;;;27.56;40.04;99797.41;5057391;28;20071;-71
2022/06/02 12:12:41;;;;;;;0.60;0.60;;;;;;;28.03;40.85;99811.66;5057283;28;20441;-73
2022/06/02 12:15:33;;;;;;;0.57;0.50;;;;;;;28.17;39.14;99808.91;5055642;28;20068;-75
2022/06/02 12:18:20;;;;;;;1.15;1.05;;;;;;;28.28;39.11;99822.97;5054789;28;20056;-75
2022/06/02 12:21:13;;;;;;;0.50;0.50;;;;;;;28.09;37.67;99819.09;5057231;28;20095;-74
2022/06/02 12:24:03;;;;;;;0.88;0.65;;;;;;;27.88;37.43;99822.25;5056817;28;20052;-75
2022/06/02 12:26:47;;;;;;;0.90;0.82;;;;;;;27.86;37.32;99818.91;5036501;28;20387;-75
2022/06/02 12:29:33;;;;;;;0.77;0.77;;;;;;;28.05;37.20;99817.66;5049565;28;20052;-71
2022/06/02 12:32:55;;;;;;;0.57;0.57;;;;;;;28.05;36.16;99809.78;5036744;28;20096;-74
2022/06/02 12:35:47;;;;;;;0.73;0.73;;;;;;;28.16;35.39;99820.34;5034850;28;20034;-73
2022/06/02 12:38:39;;;;;;;0.50;0.50;;;;;;;27.87;35.00;99815.34;5036983;28;20097;-74
2022/06/02 12:41:24;;;;;;;0.85;0.70;;;;;;;27.80;35.48;99818.50;5036273;28;20103;-74
2022/06/02 12:44:20;;;;;;;0.52;0.52;;;;;;;27.90;35.22;99815.13;5036908;28;20045;-75
2022/06/02 12:47:18;;;;;;;0.50;0.50;;;;;;;27.75;35.80;99821.44;5029068;28;20136;-74
2022/06/02 12:50:08;;;;;;;0.47;0.47;;;;;;;27.75;36.85;99816.19;5036340;28;20107;-75
2022/06/02 12:52:58;;;;;;;0.50;0.50;;;;;;;27.74;37.20;99819.75;5037961;28;20045;-73
2022/06/02 12:55:59;;;;;;;0.63;0.63;;;;;;;27.39;37.79;99823.94;5029232;28;20045;-75
2022/06/02 12:58:49;;;;;;;0.47;0.47;;;;;;;27.14;39.17;99823.84;5010232;28;20042;-74
2022/06/02 13:01:36;;;;;;;2.10;1.48;;;;;;;26.77;38.63;99821.97;5036194;28;20045;-75
2022/06/02 13:04:38;;;;;;;1.48;1.08;;;;;;;26.83;38.64;99819.78;5052408;28;20060;-75
2022/06/02 13:07:28;;;;;;;0.50;0.50;;;;;;;26.93;37.91;99820.88;5055887;28;20052;-75
2022/06/02 13:10:25;;;;;;;0.50;0.50;;;;;;;27.01;37.90;99823.84;5056256;28;20053;-75
2022/06/02 13:13:14;;;;;;;0.47;0.47;;;;;;;27.11;37.86;99818.84;5055832;28;20056;-74
2022/06/02 13:16:08;;;;;;;0.60;0.60;;;;;;;27.09;37.15;99815.47;5047673;28;20131;-75
2022/06/02 13:19:09;;;;;;;0.77;0.77;;;;;;;27.16;36.10;99824.63;5056005;28;20144;-74
2022/06/02 13:22:05;;;;;;;0.70;0.70;;;;;;;27.11;35.51;99835.38;5014388;28;20045;-75
2022/06/02 13:24:57;;;;;;;0.40;0.40;;;;;;;27.41;35.68;99816.81;5055959;28;20053;-75
2022/06/02 13:28:00;;;;;;;0.43;0.43;;;;;;;27.68;35.62;99814.09;5055704;28;20515;-74
2022/06/02 13:30:56;;;;;;;0.60;0.60;;;;;;;27.70;34.06;99813.03;5025341;28;20044;-73